Time;durP1;ratioP1;P1;durP2;ratioP2;P2;SDS_P1;SDS_P2;PMS_P1;PMS_P2;Temp;Humidity;BMP_temperature;BMP_pressure;BME280_temperature;BME280_humidity;BME280_pressure;Samples;Min_cycle;Max_cycle;Signal;HPM_P1;HPM_P2
2022/02/12 00:02:11;;;;;;;0.20;0.20;;;;;;;6.05;100.00;100752.38;5031281;28;20056;-79
2022/02/12 00:05:17;;;;;;;2.90;0.75;;;;;;;6.06;100.00;100754.72;5031827;28;20052;-79
2022/02/12 00:08:20;;;;;;;1.40;0.98;;;;;;;6.06;100.00;100746.44;5031900;28;20048;-79
2022/02/12 00:11:24;;;;;;;2.47;1.63;;;;;;;6.05;100.00;100744.09;5031622;28;20052;-79
2022/02/12 00:14:28;;;;;;;0.40;0.40;;;;;;;6.03;100.00;100747.28;5031788;28;20053;-79
2022/02/12 00:17:31;;;;;;;1.30;0.40;;;;;;;6.05;100.00;100733.03;5031899;28;20056;-79
2022/02/12 00:20:36;;;;;;;0.32;0.32;;;;;;;6.06;100.00;100729.84;5031931;28;20057;-79
2022/02/12 00:23:39;;;;;;;14.52;1.25;;;;;;;6.06;100.00;100729.09;5031087;28;20056;-79
2022/02/12 00:26:43;;;;;;;1.35;0.25;;;;;;;6.06;100.00;100729.09;5031046;28;20756;-79
2022/02/12 00:29:46;;;;;;;0.15;0.13;;;;;;;6.03;100.00;100724.38;5031495;28;20049;-79
2022/02/12 00:32:49;;;;;;;4.28;1.38;;;;;;;6.03;100.00;100719.66;5031585;28;20052;-79
2022/02/12 00:35:53;;;;;;;0.30;0.30;;;;;;;6.07;100.00;100703.75;5031219;28;20502;-80
2022/02/12 00:38:56;;;;;;;0.30;0.20;;;;;;;6.11;100.00;100698.94;5011179;28;20053;-79
2022/02/12 00:42:00;;;;;;;0.40;0.40;;;;;;;6.11;100.00;100700.91;5011666;28;20133;-79
2022/02/12 00:45:04;;;;;;;0.30;0.22;;;;;;;6.08;100.00;100697.03;5012619;28;20057;-80
2022/02/12 00:48:07;;;;;;;0.75;0.22;;;;;;;6.15;100.00;100681.50;5029320;28;20060;-79
2022/02/12 00:51:12;;;;;;;0.40;0.40;;;;;;;6.18;100.00;100680.66;5030871;28;20056;-79
2022/02/12 00:54:16;;;;;;;1.48;0.40;;;;;;;6.25;100.00;100670.22;5030973;28;20059;-79
2022/02/12 00:57:20;;;;;;;1.88;0.85;;;;;;;6.27;100.00;100661.50;5029455;28;20048;-79
2022/02/12 01:00:23;;;;;;;0.38;0.38;;;;;;;6.40;100.00;100659.66;5029412;28;20582;-78
2022/02/12 01:03:26;;;;;;;1.38;0.80;;;;;;;6.45;100.00;100656.38;5029088;28;20518;-80
2022/02/12 01:06:31;;;;;;;2.65;1.00;;;;;;;6.53;100.00;100652.25;5030270;28;20060;-80
2022/02/12 01:09:37;;;;;;;0.95;0.40;;;;;;;6.56;100.00;100651.41;5030233;28;20052;-79
2022/02/12 01:12:40;;;;;;;0.20;0.20;;;;;;;6.59;100.00;100658.84;5030818;28;20056;-79
2022/02/12 01:15:44;;;;;;;1.35;0.73;;;;;;;6.57;100.00;100666.78;5031065;28;20057;-79
2022/02/12 01:18:48;;;;;;;0.70;0.52;;;;;;;6.56;100.00;100656.94;5023471;28;20060;-79
2022/02/12 01:21:51;;;;;;;2.53;1.55;;;;;;;6.59;100.00;100650.53;5043284;28;20399;-79
2022/02/12 01:24:54;;;;;;;0.25;0.25;;;;;;;6.56;100.00;100651.41;5021137;28;20049;-79
2022/02/12 01:27:58;;;;;;;0.93;0.80;;;;;;;6.57;100.00;100628.03;5021318;28;20049;-79
2022/02/12 01:31:02;;;;;;;4.13;0.82;;;;;;;6.60;100.00;100621.66;5021426;28;20498;-80
2022/02/12 01:34:06;;;;;;;0.52;0.52;;;;;;;6.60;100.00;100608.63;5043432;28;20056;-79
2022/02/12 01:37:09;;;;;;;0.20;0.20;;;;;;;6.65;100.00;100597.00;5042406;28;20502;-79
2022/02/12 01:40:13;;;;;;;8.35;0.52;;;;;;;6.60;100.00;100592.00;5020607;28;20048;-79
2022/02/12 01:43:17;;;;;;;0.98;0.60;;;;;;;6.68;100.00;100592.59;5041745;28;20077;-79
2022/02/12 01:46:21;;;;;;;0.52;0.25;;;;;;;6.72;100.00;100576.69;5022317;28;20107;-79
2022/02/12 01:49:24;;;;;;;4.47;0.73;;;;;;;6.74;100.00;100568.72;5025372;28;20053;-79
2022/02/12 01:52:29;;;;;;;0.28;0.28;;;;;;;6.77;100.00;100562.34;5021463;28;20049;-79
2022/02/12 01:55:33;;;;;;;4.88;0.85;;;;;;;6.75;100.00;100559.22;5021346;28;20048;-79
2022/02/12 01:58:37;;;;;;;0.32;0.32;;;;;;;6.78;100.00;100552.81;5028675;28;20502;-79
2022/02/12 02:01:40;;;;;;;2.47;1.63;;;;;;;6.77;100.00;100563.13;5030437;28;20064;-79
2022/02/12 02:04:44;;;;;;;0.40;0.32;;;;;;;6.79;100.00;100559.91;5033778;28;20052;-79
2022/02/12 02:07:47;;;;;;;1.00;0.70;;;;;;;6.83;100.00;100550.31;5019595;28;20506;-79
2022/02/12 02:10:53;;;;;;;6.05;0.65;;;;;;;6.88;100.00;100546.25;5013776;28;20053;-79
2022/02/12 02:13:56;;;;;;;1.55;0.63;;;;;;;6.72;100.00;100537.94;5015213;28;20053;-79
2022/02/12 02:17:00;;;;;;;1.52;0.80;;;;;;;6.71;100.00;100539.16;5022059;28;20074;-79
2022/02/12 02:20:06;;;;;;;1.73;0.80;;;;;;;6.64;100.00;100533.78;5032733;28;20056;-79
2022/02/12 02:23:10;;;;;;;0.20;0.20;;;;;;;6.64;100.00;100519.97;5032775;28;20057;-80
2022/02/12 02:26:14;;;;;;;0.20;0.20;;;;;;;6.60;100.00;100520.06;5032657;28;20052;-80
2022/02/12 02:29:18;;;;;;;0.13;0.13;;;;;;;6.62;100.00;100508.53;5033123;28;20494;-79
2022/02/12 02:32:22;;;;;;;0.20;0.20;;;;;;;6.63;100.00;100518.38;5034146;28;20064;-79
2022/02/12 02:35:25;;;;;;;0.40;0.40;;;;;;;6.63;100.00;100508.09;5033736;28;20052;-79
2022/02/12 02:38:29;;;;;;;3.58;0.50;;;;;;;6.65;100.00;100502.13;5033338;28;20407;-80
2022/02/12 02:41:32;;;;;;;0.82;0.20;;;;;;;6.66;100.00;100501.72;5033043;28;20068;-80
2022/02/12 02:44:36;;;;;;;0.10;0.10;;;;;;;6.66;100.00;100495.41;5033852;28;20060;-79
2022/02/12 02:47:43;;;;;;;0.20;0.20;;;;;;;6.66;100.00;100478.78;5032453;28;20056;-79
2022/02/12 02:57:31;;;;;;;1.05;0.40;;;;;;;6.60;100.00;100463.94;5033641;28;20597;-79
2022/02/12 03:00:35;;;;;;;0.22;0.22;;;;;;;6.56;100.00;100454.94;5033332;28;20056;-80
2022/02/12 03:03:40;;;;;;;0.52;0.30;;;;;;;6.50;100.00;100448.34;5033247;28;20056;-78
2022/02/12 03:06:44;;;;;;;0.43;0.30;;;;;;;6.43;100.00;100459.63;5032691;28;20399;-78
2022/02/12 03:09:47;;;;;;;0.30;0.30;;;;;;;6.40;100.00;100454.94;5033271;28;20064;-78
2022/02/12 03:12:50;;;;;;;1.05;0.43;;;;;;;6.32;100.00;100448.03;5031552;28;20557;-78
2022/02/12 03:15:54;;;;;;;2.75;0.50;;;;;;;6.20;100.00;100440.41;5033316;28;20068;-79
2022/02/12 03:18:58;;;;;;;0.10;0.10;;;;;;;6.14;100.00;100429.09;5032320;28;20064;-79
2022/02/12 03:22:02;;;;;;;0.10;0.10;;;;;;;6.08;100.00;100428.84;5033098;28;20549;-79
2022/02/12 03:25:05;;;;;;;1.27;0.30;;;;;;;6.38;100.00;100429.69;5032102;28;20056;-79
2022/02/12 03:28:10;;;;;;;0.20;0.15;;;;;;;6.51;100.00;100422.25;5032119;28;20064;-80
2022/02/12 03:31:14;;;;;;;1.85;0.82;;;;;;;6.67;100.00;100408.41;5032544;28;20056;-77
2022/02/12 03:34:17;;;;;;;0.75;0.40;;;;;;;6.74;100.00;100408.97;5032623;28;20399;-80
2022/02/12 03:37:26;;;;;;;0.35;0.20;;;;;;;6.81;100.00;100410.78;5031821;28;20502;-79
2022/02/12 03:40:29;;;;;;;0.30;0.30;;;;;;;6.84;100.00;100399.59;5032617;28;20052;-80
2022/02/12 03:43:37;;;;;;;0.13;0.10;;;;;;;6.89;100.00;100392.75;5031971;28;20071;-80
2022/02/12 03:46:41;;;;;;;23.08;0.80;;;;;;;6.92;100.00;100389.13;5032339;28;20044;-77
2022/02/12 03:49:44;;;;;;;0.50;0.50;;;;;;;6.96;100.00;100384.25;5032689;28;20408;-80
2022/02/12 03:52:49;;;;;;;1.65;0.50;;;;;;;7.05;100.00;100378.88;5032456;28;20053;-79
2022/02/12 03:55:53;;;;;;;0.30;0.30;;;;;;;7.07;100.00;100370.13;5032256;28;20053;-80
2022/02/12 03:58:57;;;;;;;1.05;0.45;;;;;;;7.10;100.00;100360.94;5031302;28;20053;-80
2022/02/12 04:02:01;;;;;;;0.65;0.40;;;;;;;7.17;100.00;100357.97;5032274;28;20599;-80
2022/02/12 04:05:04;;;;;;;0.10;0.10;;;;;;;7.20;100.00;100357.84;5031946;28;20260;-80
2022/02/12 04:08:08;;;;;;;9.02;0.80;;;;;;;7.14;100.00;100353.31;5032193;28;20502;-79
2022/02/12 04:11:11;;;;;;;0.63;0.30;;;;;;;7.13;100.00;100349.75;5031059;28;20411;-80
2022/02/12 04:14:15;;;;;;;0.20;0.20;;;;;;;7.13;100.00;100341.44;5032376;28;20056;-80
2022/02/12 04:17:18;;;;;;;1.17;0.40;;;;;;;7.13;100.00;100324.03;5031740;28;20049;-79
2022/02/12 04:20:23;;;;;;;0.20;0.20;;;;;;;7.09;100.00;100313.06;5031277;28;20049;-80
2022/02/12 04:23:27;;;;;;;0.30;0.30;;;;;;;7.12;100.00;100317.75;5031843;28;20064;-79
2022/02/12 04:26:30;;;;;;;2.13;0.68;;;;;;;7.19;100.00;100316.75;5030426;28;20052;-78
2022/02/12 04:29:34;;;;;;;0.28;0.13;;;;;;;7.20;100.00;100308.00;5032151;28;20048;-79
2022/02/12 04:32:38;;;;;;;0.10;0.10;;;;;;;7.20;100.00;100312.75;5030994;28;20060;-80
2022/02/12 04:35:42;;;;;;;0.20;0.20;;;;;;;7.19;100.00;100298.13;5030647;28;20503;-79
2022/02/12 04:38:46;;;;;;;0.90;0.40;;;;;;;7.23;100.00;100307.13;5031416;28;20072;-79
2022/02/12 04:41:49;;;;;;;3.50;1.10;;;;;;;7.21;100.00;100292.91;5030573;28;20052;-79
2022/02/12 04:44:53;;;;;;;7.15;0.63;;;;;;;7.25;100.00;100293.63;5030600;28;20132;-79
2022/02/12 04:47:56;;;;;;;0.28;0.25;;;;;;;7.27;100.00;100288.41;5031011;28;20052;-79
2022/02/12 04:51:00;;;;;;;0.20;0.20;;;;;;;7.28;100.00;100297.47;5030790;28;20064;-79
2022/02/12 04:54:03;;;;;;;8.88;0.40;;;;;;;7.30;100.00;100289.50;5030947;28;20048;-79
2022/02/12 04:57:07;;;;;;;0.10;0.10;;;;;;;7.26;100.00;100289.59;5030346;28;20052;-79
2022/02/12 05:00:11;;;;;;;2.70;0.30;;;;;;;7.24;100.00;100280.97;5030580;28;20092;-79
2022/02/12 05:03:14;;;;;;;0.17;0.17;;;;;;;7.34;100.00;100282.63;5030292;28;20064;-79
2022/02/12 05:06:19;;;;;;;6.55;0.73;;;;;;;7.25;100.00;100279.75;5030458;28;20052;-79
2022/02/12 05:09:23;;;;;;;0.20;0.20;;;;;;;7.22;100.00;100268.78;5031150;28;20048;-79
2022/02/12 05:12:26;;;;;;;10.02;1.05;;;;;;;7.20;100.00;100268.44;5030447;28;20068;-79
2022/02/12 05:15:30;;;;;;;1.35;0.60;;;;;;;7.32;100.00;100260.13;5031213;28;20053;-79
2022/02/12 05:18:34;;;;;;;22.05;0.70;;;;;;;7.29;100.00;100261.03;5031031;28;20051;-79
2022/02/12 05:21:38;;;;;;;0.22;0.22;;;;;;;7.23;100.00;100253.72;5030258;28;20053;-79
2022/02/12 05:24:42;;;;;;;4.03;0.63;;;;;;;7.20;100.00;100241.53;5030212;28;20498;-80
2022/02/12 05:27:46;;;;;;;0.47;0.38;;;;;;;7.24;100.00;100235.88;5030167;28;20060;-78
2022/02/12 05:30:49;;;;;;;0.22;0.22;;;;;;;7.32;100.00;100226.88;5030269;28;20057;-79
2022/02/12 05:33:52;;;;;;;0.10;0.10;;;;;;;7.33;100.00;100238.75;5031152;28;20052;-79
2022/02/12 05:36:56;;;;;;;0.10;0.10;;;;;;;7.31;100.00;100230.88;5032446;28;20052;-79
2022/02/12 05:39:59;;;;;;;1.08;0.38;;;;;;;7.28;100.00;100220.69;5035359;28;20061;-79
2022/02/12 05:43:02;;;;;;;1.77;0.63;;;;;;;7.25;100.00;100210.50;5034955;28;20060;-79
2022/02/12 05:46:07;;;;;;;0.30;0.22;;;;;;;7.24;100.00;100208.94;5033995;28;20057;-78
2022/02/12 05:49:10;;;;;;;2.35;0.57;;;;;;;7.22;100.00;100211.38;5034722;28;20053;-79
2022/02/12 05:52:14;;;;;;;0.20;0.20;;;;;;;7.19;100.00;100203.22;5033937;28;20056;-79
2022/02/12 05:55:18;;;;;;;1.65;0.30;;;;;;;7.19;100.00;100195.66;5034400;28;20064;-78
2022/02/12 05:58:21;;;;;;;0.10;0.10;;;;;;;7.21;100.00;100184.91;5034290;28;20051;-79
2022/02/12 06:01:25;;;;;;;0.30;0.30;;;;;;;7.22;100.00;100188.44;5034059;28;20522;-79
2022/02/12 06:04:28;;;;;;;0.43;0.43;;;;;;;7.21;100.00;100186.91;5034120;28;20082;-79
2022/02/12 06:07:31;;;;;;;0.10;0.10;;;;;;;7.22;100.00;100180.91;5033776;28;20052;-79
2022/02/12 06:10:35;;;;;;;2.42;0.57;;;;;;;7.20;100.00;100169.50;5033546;28;20061;-79
2022/02/12 06:13:38;;;;;;;0.90;0.65;;;;;;;7.16;100.00;100152.25;5033953;28;20414;-79
2022/02/12 06:16:42;;;;;;;0.10;0.10;;;;;;;7.12;100.00;100145.25;5033971;28;20053;-79
2022/02/12 06:19:45;;;;;;;0.10;0.10;;;;;;;7.04;100.00;100144.69;5033904;28;20065;-79
2022/02/12 06:22:48;;;;;;;1.58;0.68;;;;;;;6.94;100.00;100134.75;5033113;28;20052;-79
2022/02/12 06:25:52;;;;;;;0.20;0.20;;;;;;;7.00;100.00;100138.50;5034099;28;20052;-80
2022/02/12 06:28:55;;;;;;;0.10;0.10;;;;;;;7.02;100.00;100136.06;5034054;28;20069;-80
2022/02/12 06:31:59;;;;;;;1.20;0.30;;;;;;;6.99;100.00;100120.38;5033944;28;20415;-80
2022/02/12 06:35:03;;;;;;;1.45;0.57;;;;;;;7.02;100.00;100127.75;5033074;28;20076;-79
2022/02/12 06:38:07;;;;;;;1.10;1.00;;;;;;;7.08;100.00;100114.91;5033103;28;20052;-79
2022/02/12 06:41:11;;;;;;;0.10;0.10;;;;;;;7.04;100.00;100114.25;5033230;28;20061;-79
2022/02/12 06:44:14;;;;;;;0.77;0.35;;;;;;;7.07;100.00;100110.59;5033202;28;20061;-80
2022/02/12 06:47:18;;;;;;;2.85;0.50;;;;;;;7.12;100.00;100106.50;5033149;28;20139;-79
2022/02/12 06:50:21;;;;;;;0.10;0.10;;;;;;;7.15;100.00;100108.34;5032741;28;20052;-80
2022/02/12 06:53:25;;;;;;;0.60;0.20;;;;;;;7.21;100.00;100103.81;5032992;28;20053;-80
2022/02/12 06:56:29;;;;;;;0.25;0.25;;;;;;;7.32;100.00;100099.44;5033481;28;20068;-79
2022/02/12 06:59:35;;;;;;;0.38;0.38;;;;;;;7.36;100.00;100093.81;5032712;28;20411;-79
2022/02/12 07:02:38;;;;;;;2.47;0.47;;;;;;;7.37;100.00;100098.91;5032559;28;20072;-79
2022/02/12 07:05:41;;;;;;;0.10;0.10;;;;;;;7.39;100.00;100093.69;5032565;28;20056;-79
2022/02/12 07:08:44;;;;;;;0.10;0.10;;;;;;;7.42;100.00;100090.03;5032906;28;20056;-79
2022/02/12 07:11:48;;;;;;;7.22;0.35;;;;;;;7.43;100.00;100094.31;5033067;28;20533;-79
2022/02/12 07:14:51;;;;;;;2.90;1.08;;;;;;;7.46;100.00;100087.91;5033375;28;20053;-78
2022/02/12 07:17:54;;;;;;;0.25;0.17;;;;;;;7.46;100.00;100082.34;5032018;28;20526;-79
2022/02/12 07:20:58;;;;;;;0.95;0.55;;;;;;;7.41;100.00;100069.06;5032373;28;20060;-79
2022/02/12 07:24:01;;;;;;;2.97;0.95;;;;;;;7.49;100.00;100070.38;5031800;28;20057;-79
2022/02/12 07:27:04;;;;;;;0.40;0.40;;;;;;;7.58;100.00;100062.13;5032005;28;20502;-79
2022/02/12 07:30:13;;;;;;;5.38;0.50;;;;;;;7.61;100.00;100069.56;5018341;28;20051;-79
2022/02/12 07:33:17;;;;;;;11.40;0.98;;;;;;;7.66;100.00;100070.97;5011992;28;20073;-79
2022/02/12 07:36:21;;;;;;;2.75;0.68;;;;;;;7.69;100.00;100072.06;5015687;28;20049;-79
2022/02/12 07:39:25;;;;;;;3.50;0.60;;;;;;;7.64;100.00;100060.31;5032505;28;20068;-79
2022/02/12 07:42:28;;;;;;;11.65;1.48;;;;;;;7.67;100.00;100053.09;5031659;28;20061;-79
2022/02/12 07:45:32;;;;;;;3.65;1.05;;;;;;;7.66;100.00;100054.34;5032708;28;20403;-79
2022/02/12 07:48:35;;;;;;;6.47;2.33;;;;;;;7.71;100.00;100050.22;5032071;28;20052;-79
2022/02/12 07:51:39;;;;;;;0.10;0.10;;;;;;;7.77;100.00;100059.50;5032155;28;20060;-80
2022/02/12 07:54:42;;;;;;;1.80;1.20;;;;;;;7.71;100.00;100058.53;5031672;28;20053;-79
2022/02/12 07:57:46;;;;;;;2.08;0.95;;;;;;;7.72;100.00;100048.97;5031510;28;20407;-78
2022/02/12 08:00:50;;;;;;;0.43;0.40;;;;;;;7.78;100.00;100044.41;5031241;28;20052;-79
2022/02/12 08:03:53;;;;;;;5.53;0.52;;;;;;;7.79;100.00;100038.44;5032237;28;20060;-79
2022/02/12 08:13:41;;;;;;;6.57;0.40;;;;;;;7.88;100.00;100038.50;5032698;28;20057;-79
2022/02/12 08:16:45;;;;;;;4.57;1.45;;;;;;;7.96;100.00;100023.13;5031802;28;20445;-79
2022/02/12 08:19:50;;;;;;;0.20;0.20;;;;;;;8.04;100.00;100026.38;5031805;28;20647;-79
2022/02/12 08:22:53;;;;;;;0.30;0.30;;;;;;;8.10;100.00;100025.34;5031977;28;20411;-82
2022/02/12 08:25:56;;;;;;;0.85;0.77;;;;;;;8.20;100.00;100020.63;5031068;28;20639;-80
2022/02/12 08:29:00;;;;;;;0.35;0.10;;;;;;;8.21;100.00;100030.47;5031713;28;20048;-78
2022/02/12 08:32:05;;;;;;;4.45;0.50;;;;;;;8.21;100.00;100022.16;5031736;28;20056;-78
2022/02/12 08:35:14;;;;;;;0.20;0.20;;;;;;;8.23;100.00;100022.47;5031749;28;20068;-78
2022/02/12 08:38:18;;;;;;;0.77;0.43;;;;;;;8.27;100.00;100006.53;5031045;28;20645;-79
2022/02/12 08:41:21;;;;;;;0.20;0.20;;;;;;;8.25;100.00;99997.84;5031306;28;20052;-79
2022/02/12 08:44:24;;;;;;;4.40;1.40;;;;;;;8.29;100.00;100004.81;5031634;28;20056;-79
2022/02/12 08:47:28;;;;;;;0.20;0.20;;;;;;;8.45;100.00;99998.25;5030516;28;20060;-79
2022/02/12 08:50:31;;;;;;;0.10;0.10;;;;;;;8.53;100.00;99999.53;5031370;28;20071;-79
2022/02/12 08:53:34;;;;;;;0.77;0.65;;;;;;;8.56;100.00;99995.81;5030367;28;20056;-79
2022/02/12 08:56:39;;;;;;;0.10;0.10;;;;;;;8.60;100.00;99982.56;5030357;28;20048;-78
2022/02/12 08:59:43;;;;;;;0.10;0.10;;;;;;;8.66;100.00;99982.75;5031507;28;20056;-79
2022/02/12 09:02:47;;;;;;;2.05;0.20;;;;;;;8.71;100.00;99977.34;5031378;28;20510;-79
2022/02/12 09:05:50;;;;;;;8.35;0.80;;;;;;;8.77;100.00;99978.28;5031482;28;20427;-78
2022/02/12 09:08:56;;;;;;;0.85;0.85;;;;;;;8.86;100.00;99969.19;5030318;28;20117;-79
2022/02/12 09:12:00;;;;;;;2.85;1.08;;;;;;;8.90;100.00;99965.03;5030619;28;20053;-79
2022/02/12 09:15:04;;;;;;;16.55;1.02;;;;;;;8.94;100.00;99957.31;5031498;28;20399;-79
2022/02/12 09:18:08;;;;;;;0.80;0.22;;;;;;;9.02;100.00;99953.00;5031032;28;20406;-79
2022/02/12 09:21:12;;;;;;;6.00;1.08;;;;;;;9.09;100.00;99938.81;5030232;28;20053;-79
2022/02/12 09:24:17;;;;;;;3.35;1.13;;;;;;;9.18;100.00;99942.81;5031035;28;20064;-79
2022/02/12 09:27:22;;;;;;;3.80;0.50;;;;;;;9.22;100.00;99943.44;5031029;28;20052;-79
2022/02/12 09:30:25;;;;;;;1.00;0.40;;;;;;;9.26;100.00;99941.28;5031330;28;20056;-79
2022/02/12 09:33:29;;;;;;;2.20;0.60;;;;;;;9.33;100.00;99940.97;5030853;28;20052;-78
2022/02/12 09:36:32;;;;;;;12.55;0.60;;;;;;;9.40;100.00;99929.53;5030533;28;20675;-78
2022/02/12 09:39:36;;;;;;;0.98;0.38;;;;;;;9.49;100.00;99948.97;5033944;28;20048;-79
2022/02/12 09:42:40;;;;;;;0.20;0.20;;;;;;;9.50;100.00;99947.72;5030992;28;20049;-79
2022/02/12 09:46:25;;;;;;;0.82;0.32;;;;;;;9.53;100.00;99944.03;5030842;28;20057;-78
2022/02/12 09:49:29;;;;;;;2.72;1.08;;;;;;;9.51;100.00;99932.56;5033197;28;20052;-79
2022/02/12 09:52:34;;;;;;;0.75;0.47;;;;;;;9.56;100.00;99932.75;5019673;28;20065;-78
2022/02/12 09:55:42;;;;;;;0.73;0.73;;;;;;;9.67;100.00;99933.03;5021180;28;20056;-79
2022/02/12 09:58:49;;;;;;;5.88;0.47;;;;;;;9.75;100.00;99928.66;5022237;28;20048;-78
2022/02/12 10:01:53;;;;;;;4.60;1.25;;;;;;;9.77;100.00;99911.50;5019433;28;20060;-79
2022/02/12 10:05:25;;;;;;;5.05;1.52;;;;;;;9.68;100.00;99917.13;5020469;28;20064;-79
2022/02/12 10:08:29;;;;;;;10.25;1.05;;;;;;;9.71;100.00;99893.91;5020449;28;20052;-79
2022/02/12 10:11:48;;;;;;;0.15;0.15;;;;;;;9.79;100.00;99887.56;5020364;28;20586;-79
2022/02/12 10:14:51;;;;;;;2.60;0.88;;;;;;;9.91;100.00;99874.69;5028979;28;20506;-78
2022/02/12 10:17:57;;;;;;;0.55;0.55;;;;;;;9.98;100.00;99881.91;5020803;28;20040;-78
2022/02/12 10:21:03;;;;;;;0.20;0.10;;;;;;;10.05;100.00;99857.28;5020895;28;20056;-78
2022/02/12 10:24:07;;;;;;;1.38;0.30;;;;;;;10.09;100.00;99851.56;5029173;28;20048;-79
2022/02/12 10:27:10;;;;;;;0.10;0.10;;;;;;;10.10;100.00;99853.09;5034104;28;20057;-79
2022/02/12 10:30:14;;;;;;;2.28;0.60;;;;;;;10.16;100.00;99840.88;5017358;28;20053;-78
2022/02/12 10:33:17;;;;;;;0.20;0.20;;;;;;;10.18;100.00;99841.19;5013423;28;20083;-78
2022/02/12 10:36:22;;;;;;;0.13;0.13;;;;;;;10.25;100.00;99846.41;5017154;28;20556;-79
2022/02/12 10:39:25;;;;;;;0.63;0.43;;;;;;;10.27;100.00;99835.56;5034104;28;20048;-78
2022/02/12 10:42:31;;;;;;;8.73;1.05;;;;;;;10.32;100.00;99831.34;5034000;28;20510;-79
2022/02/12 10:45:34;;;;;;;0.63;0.40;;;;;;;10.28;100.00;99828.75;5034489;28;20056;-80
2022/02/12 10:48:40;;;;;;;0.10;0.10;;;;;;;10.26;100.00;99811.75;5032923;28;20060;-79
2022/02/12 10:51:44;;;;;;;3.90;0.57;;;;;;;10.23;100.00;99836.97;5033744;28;20411;-79
2022/02/12 10:54:50;;;;;;;0.30;0.25;;;;;;;10.24;100.00;99814.25;5033363;28;20056;-78
2022/02/12 10:57:55;;;;;;;1.10;0.30;;;;;;;10.30;100.00;99823.47;5032772;28;20048;-78
2022/02/12 11:00:59;;;;;;;0.35;0.10;;;;;;;10.30;100.00;99817.16;5032393;28;20065;-78
2022/02/12 11:04:03;;;;;;;0.82;0.60;;;;;;;10.28;100.00;99803.72;5033281;28;20053;-78
2022/02/12 11:07:11;;;;;;;5.00;0.52;;;;;;;10.25;100.00;99790.72;5033338;28;20056;-78
2022/02/12 11:10:15;;;;;;;0.55;0.30;;;;;;;10.20;100.00;99802.50;5033419;28;20053;-79
2022/02/12 11:13:19;;;;;;;0.40;0.30;;;;;;;10.16;100.00;99781.66;5032941;28;20060;-79
2022/02/12 11:16:23;;;;;;;6.60;0.93;;;;;;;10.07;100.00;99793.59;5033141;28;20056;-79
2022/02/12 11:19:27;;;;;;;0.13;0.13;;;;;;;10.06;100.00;99785.72;5022753;28;20053;-79
2022/02/12 11:22:31;;;;;;;1.23;0.85;;;;;;;10.04;100.00;99783.44;5013104;28;20061;-79
2022/02/12 11:25:35;;;;;;;0.30;0.20;;;;;;;9.98;100.00;99774.22;5015617;28;20538;-78
2022/02/12 11:28:41;;;;;;;0.40;0.20;;;;;;;9.84;100.00;99775.66;5012955;28;20056;-78
2022/02/12 11:32:10;;;;;;;0.30;0.20;;;;;;;9.70;100.00;99781.16;5013001;28;20463;-78
2022/02/12 11:35:18;;;;;;;1.48;0.50;;;;;;;9.56;100.00;99768.72;5012857;28;20407;-79
2022/02/12 11:38:34;;;;;;;0.90;0.55;;;;;;;9.48;100.00;99772.31;5031679;28;20048;-78
2022/02/12 11:41:40;;;;;;;0.32;0.22;;;;;;;9.40;100.00;99771.13;5032576;28;20124;-78
2022/02/12 11:44:47;;;;;;;1.02;0.10;;;;;;;9.33;100.00;99763.09;5032064;28;20056;-78
2022/02/12 11:48:10;;;;;;;0.22;0.22;;;;;;;9.24;100.00;99758.34;5016011;28;20056;-78
2022/02/12 11:51:13;;;;;;;0.40;0.40;;;;;;;9.16;100.00;99752.34;5034669;28;20065;-77
2022/02/12 11:54:45;;;;;;;1.75;0.57;;;;;;;9.09;100.00;99736.03;5012356;28;20053;-78
2022/02/12 11:57:48;;;;;;;0.20;0.20;;;;;;;9.09;100.00;99722.16;5026543;28;20056;-77
2022/02/12 12:00:51;;;;;;;0.35;0.25;;;;;;;9.09;100.00;99713.81;5031139;28;20056;-77
2022/02/12 12:04:15;;;;;;;14.70;0.43;;;;;;;9.07;100.00;99707.94;5021472;28;20057;-77
2022/02/12 12:07:19;;;;;;;1.70;0.63;;;;;;;9.01;100.00;99704.25;5024467;28;20462;-77
2022/02/12 12:10:23;;;;;;;3.40;0.68;;;;;;;8.92;100.00;99698.72;5042448;28;20053;-77
2022/02/12 12:13:26;;;;;;;2.85;0.82;;;;;;;8.87;100.00;99691.03;5020740;28;20053;-77
2022/02/12 12:16:33;;;;;;;3.92;1.05;;;;;;;8.81;100.00;99681.03;5023720;28;20117;-77
2022/02/12 12:19:39;;;;;;;0.63;0.63;;;;;;;8.71;100.00;99666.41;5021722;28;20061;-77
2022/02/12 12:22:42;;;;;;;3.50;1.23;;;;;;;8.64;100.00;99661.19;5021739;28;20063;-77
2022/02/12 12:25:53;;;;;;;0.20;0.20;;;;;;;8.63;100.00;99650.53;5020585;28;20057;-78
2022/02/12 12:32:34;;;;;;;1.27;0.50;;;;;;;8.53;100.00;99640.72;5031816;28;20052;-80
2022/02/12 12:35:38;;;;;;;5.97;1.90;;;;;;;8.52;100.00;99645.50;5031000;28;20494;-80
2022/02/12 12:38:46;;;;;;;3.60;0.35;;;;;;;8.52;100.00;99631.63;5031820;28;20406;-82
2022/02/12 12:41:54;;;;;;;0.20;0.20;;;;;;;8.59;100.00;99636.84;5030851;28;20124;-81
2022/02/12 12:45:00;;;;;;;1.10;0.77;;;;;;;8.70;100.00;99626.00;5031463;28;20056;-81
2022/02/12 12:48:04;;;;;;;3.70;0.43;;;;;;;8.81;100.00;99617.97;5031271;28;20048;-82
2022/02/12 12:51:15;;;;;;;0.20;0.17;;;;;;;8.81;100.00;99623.50;5031201;28;20077;-81
2022/02/12 12:54:31;;;;;;;0.22;0.22;;;;;;;8.86;100.00;99622.84;5031072;28;20072;-81
2022/02/12 12:57:39;;;;;;;1.55;0.57;;;;;;;8.91;100.00;99622.22;5031276;28;20056;-81
2022/02/12 13:00:43;;;;;;;0.43;0.43;;;;;;;8.94;100.00;99614.97;5030896;28;20052;-81
2022/02/12 13:03:47;;;;;;;1.00;0.70;;;;;;;8.94;100.00;99610.16;5030645;28;20056;-80
2022/02/12 13:06:53;;;;;;;0.52;0.52;;;;;;;8.94;100.00;99609.41;5041703;28;20088;-80
2022/02/12 13:09:58;;;;;;;0.73;0.70;;;;;;;8.92;100.00;99612.63;5031447;28;20061;-79
2022/02/12 13:13:16;;;;;;;17.90;1.40;;;;;;;8.79;100.00;99609.28;5030270;28;20506;-78
2022/02/12 13:16:20;;;;;;;7.93;1.83;;;;;;;8.83;100.00;99601.59;5030953;28;20060;-78
2022/02/12 13:19:25;;;;;;;7.38;0.75;;;;;;;8.89;100.00;99593.38;5030819;28;20068;-78
2022/02/12 13:22:32;;;;;;;0.22;0.22;;;;;;;8.90;100.00;99592.91;5030281;28;20502;-77
2022/02/12 13:25:38;;;;;;;0.80;0.30;;;;;;;8.92;100.00;99586.91;5014598;28;20057;-78
2022/02/12 13:28:49;;;;;;;0.65;0.52;;;;;;;8.88;100.00;99583.53;5021515;28;20069;-78
2022/02/12 13:31:56;;;;;;;0.45;0.45;;;;;;;8.98;100.00;99566.34;5016422;28;20049;-78
2022/02/12 13:35:04;;;;;;;0.38;0.38;;;;;;;8.99;100.00;99576.19;5011488;28;20064;-77
2022/02/12 13:38:11;;;;;;;7.55;1.00;;;;;;;9.02;100.00;99572.47;5028922;28;20064;-80
2022/02/12 13:41:15;;;;;;;0.10;0.10;;;;;;;9.05;100.00;99565.97;5028776;28;20056;-80
2022/02/12 13:44:31;;;;;;;2.28;0.30;;;;;;;9.18;100.00;99560.94;5029220;28;20056;-78
2022/02/12 13:47:35;;;;;;;0.47;0.40;;;;;;;9.13;100.00;99561.63;5030692;28;20502;-78
2022/02/12 13:50:39;;;;;;;0.68;0.57;;;;;;;9.09;100.00;99554.69;5030367;28;20072;-79
2022/02/12 13:53:46;;;;;;;2.80;0.65;;;;;;;9.04;100.00;99536.66;5011701;28;20396;-80
2022/02/12 13:56:51;;;;;;;5.88;0.50;;;;;;;9.10;100.00;99534.00;5030864;28;20069;-80
2022/02/12 13:59:55;;;;;;;2.53;0.77;;;;;;;9.08;100.00;99536.47;5023874;28;20053;-80
2022/02/12 14:02:58;;;;;;;1.95;0.88;;;;;;;9.07;100.00;99524.59;5029836;28;20052;-79
2022/02/12 14:06:02;;;;;;;0.30;0.30;;;;;;;9.13;100.00;99522.72;5034291;28;20060;-81
2022/02/12 14:09:07;;;;;;;0.82;0.30;;;;;;;9.15;100.00;99513.91;5033025;28;20053;-80
2022/02/12 14:12:11;;;;;;;3.35;0.77;;;;;;;9.13;100.00;99519.94;5032854;28;20072;-79
2022/02/12 14:15:15;;;;;;;0.60;0.60;;;;;;;9.05;100.00;99502.09;5029048;28;20052;-79
2022/02/12 14:18:20;;;;;;;0.20;0.20;;;;;;;9.10;100.00;99495.88;5033470;28;20052;-80
2022/02/12 14:21:23;;;;;;;0.60;0.52;;;;;;;9.23;100.00;99480.97;5033387;28;20072;-79
2022/02/12 14:24:27;;;;;;;3.00;0.65;;;;;;;9.31;100.00;99473.81;5031987;28;20053;-80
2022/02/12 14:27:30;;;;;;;0.50;0.50;;;;;;;9.39;100.00;99477.75;5023768;28;20069;-80
2022/02/12 14:30:33;;;;;;;6.97;1.10;;;;;;;9.44;100.00;99457.66;5013354;28;20053;-79
2022/02/12 14:33:38;;;;;;;0.47;0.43;;;;;;;9.44;100.00;99452.09;5013434;28;20053;-78
2022/02/12 14:36:41;;;;;;;0.40;0.40;;;;;;;9.39;100.00;99450.72;5019906;28;20048;-81
2022/02/12 14:39:46;;;;;;;0.75;0.50;;;;;;;9.38;100.00;99459.53;5034080;28;20057;-80